Terminal Aerodrome Forecast
Issued by NWS Burlington, VT

Home | Current Version | Previous Version | Text Only | Print | Product List | Glossary On
Versions: 1 2 3 4 5 6 7 8 9 10 11 12 13 14 15 16 17 18
000
FTUS41 KBTV 232339 AAB
TAFBTV
TAF AMD
KBTV 232339Z 2400/2424 24008G16KT P6SM VCSH BKN060
      TEMPO 2400/2402 4SM SHRA OVC035
     FM240200 26010G20KT P6SM VCSH OVC035
     FM240800 31010G18KT P6SM OVC040
     FM241100 30012G19KT P6SM BKN050
     FM242000 31009KT 4SM BR BKN150=

USA.gov is the U.S. government's official web portal to all federal, state and local government web resources and services.